sensor_id;sensor_type;location;lat;lon;timestamp;temperature;humidity
13172;DHT22;6651;53.200;10.432;2022-07-10T00:00:45;14.10;99.90
13172;DHT22;6651;53.200;10.432;2022-07-10T00:03:13;14.10;99.90
13172;DHT22;6651;53.200;10.432;2022-07-10T00:05:39;14.20;99.90
13172;DHT22;6651;53.200;10.432;2022-07-10T00:08:14;14.20;99.90
13172;DHT22;6651;53.200;10.432;2022-07-10T00:10:40;14.20;99.90
13172;DHT22;6651;53.200;10.432;2022-07-10T00:13:06;14.10;99.90
13172;DHT22;6651;53.200;10.432;2022-07-10T00:15:32;14.10;99.90
13172;DHT22;6651;53.200;10.432;2022-07-10T00:17:57;14.10;99.90
13172;DHT22;6651;53.200;10.432;2022-07-10T00:20:25;14.00;99.90
13172;DHT22;6651;53.200;10.432;2022-07-10T00:22:51;14.00;99.90
13172;DHT22;6651;53.200;10.432;2022-07-10T00:25:17;14.00;99.90
13172;DHT22;6651;53.200;10.432;2022-07-10T00:27:45;14.00;99.90
13172;DHT22;6651;53.200;10.432;2022-07-10T00:30:19;14.00;99.90
13172;DHT22;6651;53.200;10.432;2022-07-10T00:32:48;14.00;99.90
13172;DHT22;6651;53.200;10.432;2022-07-10T00:35:13;14.00;99.90
13172;DHT22;6651;53.200;10.432;2022-07-10T00:37:39;13.90;99.90
13172;DHT22;6651;53.200;10.432;2022-07-10T00:40:05;13.80;99.90
13172;DHT22;6651;53.200;10.432;2022-07-10T00:42:31;13.90;99.90
13172;DHT22;6651;53.200;10.432;2022-07-10T00:44:57;13.90;99.90
13172;DHT22;6651;53.200;10.432;2022-07-10T00:47:22;13.90;99.90
13172;DHT22;6651;53.200;10.432;2022-07-10T00:49:48;13.90;99.90
13172;DHT22;6651;53.200;10.432;2022-07-10T00:52:18;13.80;99.90
13172;DHT22;6651;53.200;10.432;2022-07-10T00:54:48;13.90;99.90
13172;DHT22;6651;53.200;10.432;2022-07-10T00:57:16;13.90;99.90
13172;DHT22;6651;53.200;10.432;2022-07-10T00:59:43;13.90;99.90
13172;DHT22;6651;53.200;10.432;2022-07-10T01:02:10;13.90;99.90
13172;DHT22;6651;53.200;10.432;2022-07-10T01:04:36;13.90;99.90
13172;DHT22;6651;53.200;10.432;2022-07-10T01:07:02;13.90;99.90
13172;DHT22;6651;53.200;10.432;2022-07-10T01:09:28;13.90;99.90
13172;DHT22;6651;53.200;10.432;2022-07-10T01:11:56;13.90;99.90
13172;DHT22;6651;53.200;10.432;2022-07-10T01:14:21;13.90;99.90
13172;DHT22;6651;53.200;10.432;2022-07-10T01:16:48;13.90;99.90
13172;DHT22;6651;53.200;10.432;2022-07-10T01:19:14;13.80;99.90
13172;DHT22;6651;53.200;10.432;2022-07-10T01:21:39;13.80;99.90
13172;DHT22;6651;53.200;10.432;2022-07-10T01:24:09;13.80;99.90
13172;DHT22;6651;53.200;10.432;2022-07-10T01:26:36;13.70;99.90
13172;DHT22;6651;53.200;10.432;2022-07-10T01:29:06;13.70;99.90
13172;DHT22;6651;53.200;10.432;2022-07-10T01:31:33;13.70;99.90
13172;DHT22;6651;53.200;10.432;2022-07-10T01:34:00;13.80;99.90
13172;DHT22;6651;53.200;10.432;2022-07-10T01:36:28;13.70;99.90
13172;DHT22;6651;53.200;10.432;2022-07-10T01:38:55;13.70;99.90
13172;DHT22;6651;53.200;10.432;2022-07-10T01:41:21;13.60;99.90
13172;DHT22;6651;53.200;10.432;2022-07-10T01:43:47;13.60;99.90
13172;DHT22;6651;53.200;10.432;2022-07-10T01:46:13;13.60;99.90
13172;DHT22;6651;53.200;10.432;2022-07-10T01:48:39;13.60;99.90
13172;DHT22;6651;53.200;10.432;2022-07-10T01:51:06;13.60;99.90
13172;DHT22;6651;53.200;10.432;2022-07-10T01:53:32;13.60;99.90
13172;DHT22;6651;53.200;10.432;2022-07-10T01:55:59;13.60;99.90
13172;DHT22;6651;53.200;10.432;2022-07-10T01:58:26;13.60;99.90
13172;DHT22;6651;53.200;10.432;2022-07-10T02:00:51;13.60;99.90
13172;DHT22;6651;53.200;10.432;2022-07-10T02:03:17;13.60;99.90
13172;DHT22;6651;53.200;10.432;2022-07-10T02:06:01;13.60;99.90
13172;DHT22;6651;53.200;10.432;2022-07-10T02:08:27;13.50;99.90
13172;DHT22;6651;53.200;10.432;2022-07-10T02:10:52;13.50;99.90
13172;DHT22;6651;53.200;10.432;2022-07-10T02:13:18;13.50;99.90
13172;DHT22;6651;53.200;10.432;2022-07-10T02:15:46;13.40;99.90
13172;DHT22;6651;53.200;10.432;2022-07-10T02:18:13;13.40;99.90
13172;DHT22;6651;53.200;10.432;2022-07-10T02:20:39;13.40;99.90
13172;DHT22;6651;53.200;10.432;2022-07-10T02:23:04;13.30;99.90
13172;DHT22;6651;53.200;10.432;2022-07-10T02:25:32;13.30;99.90
13172;DHT22;6651;53.200;10.432;2022-07-10T02:27:58;13.30;99.90
13172;DHT22;6651;53.200;10.432;2022-07-10T02:30:24;13.40;99.90
13172;DHT22;6651;53.200;10.432;2022-07-10T02:32:49;13.40;99.90
13172;DHT22;6651;53.200;10.432;2022-07-10T02:35:15;13.50;99.90
13172;DHT22;6651;53.200;10.432;2022-07-10T02:37:40;13.50;99.90
13172;DHT22;6651;53.200;10.432;2022-07-10T02:40:07;13.50;99.90
13172;DHT22;6651;53.200;10.432;2022-07-10T02:42:33;13.40;99.90
13172;DHT22;6651;53.200;10.432;2022-07-10T02:44:58;13.40;99.90
13172;DHT22;6651;53.200;10.432;2022-07-10T02:47:24;13.40;99.90
13172;DHT22;6651;53.200;10.432;2022-07-10T02:49:49;13.40;99.90
13172;DHT22;6651;53.200;10.432;2022-07-10T02:52:15;13.40;99.90
13172;DHT22;6651;53.200;10.432;2022-07-10T02:54:41;13.40;99.90
13172;DHT22;6651;53.200;10.432;2022-07-10T02:57:06;13.30;99.90
13172;DHT22;6651;53.200;10.432;2022-07-10T02:59:32;13.40;99.90
13172;DHT22;6651;53.200;10.432;2022-07-10T03:01:57;13.50;99.90
13172;DHT22;6651;53.200;10.432;2022-07-10T03:04:23;13.50;99.90
13172;DHT22;6651;53.200;10.432;2022-07-10T03:06:49;13.50;99.90
13172;DHT22;6651;53.200;10.432;2022-07-10T03:09:14;13.50;99.90
13172;DHT22;6651;53.200;10.432;2022-07-10T03:11:40;13.50;99.90
13172;DHT22;6651;53.200;10.432;2022-07-10T03:14:06;13.50;99.90
13172;DHT22;6651;53.200;10.432;2022-07-10T03:16:32;13.40;99.90
13172;DHT22;6651;53.200;10.432;2022-07-10T03:18:57;13.30;99.90
13172;DHT22;6651;53.200;10.432;2022-07-10T03:21:23;13.40;99.90
13172;DHT22;6651;53.200;10.432;2022-07-10T03:23:49;13.40;99.90
13172;DHT22;6651;53.200;10.432;2022-07-10T03:26:15;13.50;99.90
13172;DHT22;6651;53.200;10.432;2022-07-10T03:28:41;13.40;99.90
13172;DHT22;6651;53.200;10.432;2022-07-10T03:31:06;13.50;99.90
13172;DHT22;6651;53.200;10.432;2022-07-10T03:33:32;13.50;99.90
13172;DHT22;6651;53.200;10.432;2022-07-10T03:35:59;13.50;99.90
13172;DHT22;6651;53.200;10.432;2022-07-10T03:38:27;13.50;99.90
13172;DHT22;6651;53.200;10.432;2022-07-10T03:40:53;13.50;99.90
13172;DHT22;6651;53.200;10.432;2022-07-10T03:43:18;13.60;99.90
13172;DHT22;6651;53.200;10.432;2022-07-10T03:45:44;13.50;99.90
13172;DHT22;6651;53.200;10.432;2022-07-10T03:48:10;13.40;99.90
13172;DHT22;6651;53.200;10.432;2022-07-10T03:50:35;13.40;99.90
13172;DHT22;6651;53.200;10.432;2022-07-10T03:53:01;13.40;99.90
13172;DHT22;6651;53.200;10.432;2022-07-10T03:55:27;13.40;99.90
13172;DHT22;6651;53.200;10.432;2022-07-10T03:57:52;13.50;99.90
13172;DHT22;6651;53.200;10.432;2022-07-10T04:00:26;13.50;99.90
13172;DHT22;6651;53.200;10.432;2022-07-10T04:03:02;13.50;99.90
13172;DHT22;6651;53.200;10.432;2022-07-10T04:05:29;13.50;99.90
13172;DHT22;6651;53.200;10.432;2022-07-10T04:07:56;13.60;99.90
13172;DHT22;6651;53.200;10.432;2022-07-10T04:10:23;13.60;99.90
13172;DHT22;6651;53.200;10.432;2022-07-10T04:12:49;13.70;99.90
13172;DHT22;6651;53.200;10.432;2022-07-10T04:15:15;13.70;99.90
13172;DHT22;6651;53.200;10.432;2022-07-10T04:17:42;13.70;99.90
13172;DHT22;6651;53.200;10.432;2022-07-10T04:20:08;13.60;99.90
13172;DHT22;6651;53.200;10.432;2022-07-10T04:22:34;13.60;99.90
13172;DHT22;6651;53.200;10.432;2022-07-10T04:24:59;13.60;99.90
13172;DHT22;6651;53.200;10.432;2022-07-10T04:27:25;13.60;99.90
13172;DHT22;6651;53.200;10.432;2022-07-10T04:29:51;13.60;99.90
13172;DHT22;6651;53.200;10.432;2022-07-10T04:32:17;13.60;99.90
13172;DHT22;6651;53.200;10.432;2022-07-10T04:34:42;13.70;99.90
13172;DHT22;6651;53.200;10.432;2022-07-10T04:37:08;13.70;99.90
13172;DHT22;6651;53.200;10.432;2022-07-10T04:39:34;13.70;99.90
13172;DHT22;6651;53.200;10.432;2022-07-10T04:42:01;13.70;99.90
13172;DHT22;6651;53.200;10.432;2022-07-10T04:44:28;13.70;99.90
13172;DHT22;6651;53.200;10.432;2022-07-10T04:46:54;13.70;99.90
13172;DHT22;6651;53.200;10.432;2022-07-10T04:49:20;13.70;99.90
13172;DHT22;6651;53.200;10.432;2022-07-10T04:51:45;13.70;99.90
13172;DHT22;6651;53.200;10.432;2022-07-10T04:54:11;13.70;99.90
13172;DHT22;6651;53.200;10.432;2022-07-10T04:56:37;13.80;99.90
13172;DHT22;6651;53.200;10.432;2022-07-10T04:59:03;13.80;99.90
13172;DHT22;6651;53.200;10.432;2022-07-10T05:01:28;13.80;99.90
13172;DHT22;6651;53.200;10.432;2022-07-10T05:03:55;13.90;99.90
13172;DHT22;6651;53.200;10.432;2022-07-10T05:06:20;13.90;99.90
13172;DHT22;6651;53.200;10.432;2022-07-10T05:08:46;13.90;99.90
13172;DHT22;6651;53.200;10.432;2022-07-10T05:11:12;13.90;99.90
13172;DHT22;6651;53.200;10.432;2022-07-10T05:13:38;14.00;99.90
13172;DHT22;6651;53.200;10.432;2022-07-10T05:16:04;14.10;99.90
13172;DHT22;6651;53.200;10.432;2022-07-10T05:18:30;14.10;99.90
13172;DHT22;6651;53.200;10.432;2022-07-10T05:20:56;14.20;99.90
13172;DHT22;6651;53.200;10.432;2022-07-10T05:23:21;14.20;99.90
13172;DHT22;6651;53.200;10.432;2022-07-10T05:25:47;14.20;99.90
13172;DHT22;6651;53.200;10.432;2022-07-10T05:28:13;14.30;99.90
13172;DHT22;6651;53.200;10.432;2022-07-10T05:30:40;14.30;99.90
13172;DHT22;6651;53.200;10.432;2022-07-10T05:33:06;14.30;99.90
13172;DHT22;6651;53.200;10.432;2022-07-10T05:35:32;14.40;99.90
13172;DHT22;6651;53.200;10.432;2022-07-10T05:37:58;14.50;99.90
13172;DHT22;6651;53.200;10.432;2022-07-10T05:40:24;14.60;99.90
13172;DHT22;6651;53.200;10.432;2022-07-10T05:42:50;14.60;99.90
13172;DHT22;6651;53.200;10.432;2022-07-10T05:45:17;14.70;99.90
13172;DHT22;6651;53.200;10.432;2022-07-10T05:47:43;14.70;99.90
13172;DHT22;6651;53.200;10.432;2022-07-10T05:50:10;14.70;99.90
13172;DHT22;6651;53.200;10.432;2022-07-10T05:52:36;14.80;99.90
13172;DHT22;6651;53.200;10.432;2022-07-10T05:55:03;14.80;99.90
13172;DHT22;6651;53.200;10.432;2022-07-10T05:57:30;14.80;99.90
13172;DHT22;6651;53.200;10.432;2022-07-10T05:59:56;14.90;99.90
13172;DHT22;6651;53.200;10.432;2022-07-10T06:02:22;14.90;99.90
13172;DHT22;6651;53.200;10.432;2022-07-10T06:04:48;14.90;99.90
13172;DHT22;6651;53.200;10.432;2022-07-10T06:07:14;14.90;99.90
13172;DHT22;6651;53.200;10.432;2022-07-10T06:09:40;14.80;99.90
13172;DHT22;6651;53.200;10.432;2022-07-10T06:12:06;14.90;99.90
13172;DHT22;6651;53.200;10.432;2022-07-10T06:14:32;14.90;99.90
13172;DHT22;6651;53.200;10.432;2022-07-10T06:16:58;14.90;99.90
13172;DHT22;6651;53.200;10.432;2022-07-10T06:19:23;15.00;99.90
13172;DHT22;6651;53.200;10.432;2022-07-10T06:21:49;15.10;99.90
13172;DHT22;6651;53.200;10.432;2022-07-10T06:24:34;15.20;99.90
13172;DHT22;6651;53.200;10.432;2022-07-10T06:27:00;15.20;99.90
13172;DHT22;6651;53.200;10.432;2022-07-10T06:29:26;15.20;99.90
13172;DHT22;6651;53.200;10.432;2022-07-10T06:31:51;15.20;99.90
13172;DHT22;6651;53.200;10.432;2022-07-10T06:34:17;15.30;99.90
13172;DHT22;6651;53.200;10.432;2022-07-10T06:36:42;15.50;99.90
13172;DHT22;6651;53.200;10.432;2022-07-10T06:39:08;15.50;99.90
13172;DHT22;6651;53.200;10.432;2022-07-10T06:41:33;15.50;99.90
13172;DHT22;6651;53.200;10.432;2022-07-10T06:43:59;15.60;99.90
13172;DHT22;6651;53.200;10.432;2022-07-10T06:46:26;15.70;99.90
13172;DHT22;6651;53.200;10.432;2022-07-10T06:48:52;15.80;99.90
13172;DHT22;6651;53.200;10.432;2022-07-10T06:51:18;15.90;99.90
13172;DHT22;6651;53.200;10.432;2022-07-10T06:53:44;16.00;99.90
13172;DHT22;6651;53.200;10.432;2022-07-10T06:56:10;16.10;99.90
13172;DHT22;6651;53.200;10.432;2022-07-10T06:58:35;16.00;99.90
13172;DHT22;6651;53.200;10.432;2022-07-10T07:01:01;15.90;99.90
13172;DHT22;6651;53.200;10.432;2022-07-10T07:03:27;15.80;99.90
13172;DHT22;6651;53.200;10.432;2022-07-10T07:05:52;15.80;99.90
13172;DHT22;6651;53.200;10.432;2022-07-10T07:08:18;15.80;99.90
13172;DHT22;6651;53.200;10.432;2022-07-10T07:10:44;15.90;99.90
13172;DHT22;6651;53.200;10.432;2022-07-10T07:13:10;15.90;99.90
13172;DHT22;6651;53.200;10.432;2022-07-10T07:15:35;16.10;99.90
13172;DHT22;6651;53.200;10.432;2022-07-10T07:18:07;16.10;99.90
13172;DHT22;6651;53.200;10.432;2022-07-10T07:20:34;16.10;99.90
13172;DHT22;6651;53.200;10.432;2022-07-10T07:23:19;16.10;99.90
13172;DHT22;6651;53.200;10.432;2022-07-10T07:25:45;16.20;99.90
13172;DHT22;6651;53.200;10.432;2022-07-10T07:28:17;16.30;99.90
13172;DHT22;6651;53.200;10.432;2022-07-10T07:30:45;16.40;99.90
13172;DHT22;6651;53.200;10.432;2022-07-10T07:33:12;16.70;99.90
13172;DHT22;6651;53.200;10.432;2022-07-10T07:35:38;16.90;99.90
13172;DHT22;6651;53.200;10.432;2022-07-10T07:38:04;17.00;99.90
13172;DHT22;6651;53.200;10.432;2022-07-10T07:40:31;17.10;99.90
13172;DHT22;6651;53.200;10.432;2022-07-10T07:42:57;17.30;99.90
13172;DHT22;6651;53.200;10.432;2022-07-10T07:45:24;17.30;99.90
13172;DHT22;6651;53.200;10.432;2022-07-10T07:50:18;17.20;99.90
13172;DHT22;6651;53.200;10.432;2022-07-10T07:52:45;17.10;99.90
13172;DHT22;6651;53.200;10.432;2022-07-10T07:55:12;17.10;99.90
13172;DHT22;6651;53.200;10.432;2022-07-10T07:57:38;17.00;99.90
13172;DHT22;6651;53.200;10.432;2022-07-10T08:00:05;16.90;99.90
13172;DHT22;6651;53.200;10.432;2022-07-10T08:02:33;16.80;99.90
13172;DHT22;6651;53.200;10.432;2022-07-10T08:04:59;17.00;99.90
13172;DHT22;6651;53.200;10.432;2022-07-10T08:07:40;17.10;99.90
13172;DHT22;6651;53.200;10.432;2022-07-10T08:10:09;17.10;99.90
13172;DHT22;6651;53.200;10.432;2022-07-10T08:12:35;17.10;99.90
13172;DHT22;6651;53.200;10.432;2022-07-10T08:15:01;17.40;99.90
13172;DHT22;6651;53.200;10.432;2022-07-10T08:17:27;17.90;99.90
13172;DHT22;6651;53.200;10.432;2022-07-10T08:19:53;18.30;99.90
13172;DHT22;6651;53.200;10.432;2022-07-10T08:22:19;18.70;99.90
13172;DHT22;6651;53.200;10.432;2022-07-10T08:24:44;18.80;99.90
13172;DHT22;6651;53.200;10.432;2022-07-10T08:27:10;19.00;99.90
13172;DHT22;6651;53.200;10.432;2022-07-10T08:29:35;19.20;99.90
13172;DHT22;6651;53.200;10.432;2022-07-10T08:32:04;19.50;99.90
13172;DHT22;6651;53.200;10.432;2022-07-10T08:34:31;19.50;99.90
13172;DHT22;6651;53.200;10.432;2022-07-10T08:36:58;19.70;99.90
13172;DHT22;6651;53.200;10.432;2022-07-10T08:39:24;19.40;99.90
13172;DHT22;6651;53.200;10.432;2022-07-10T08:41:50;19.00;99.90
13172;DHT22;6651;53.200;10.432;2022-07-10T08:44:16;18.70;99.90
13172;DHT22;6651;53.200;10.432;2022-07-10T08:46:45;18.50;99.90
13172;DHT22;6651;53.200;10.432;2022-07-10T08:49:11;18.50;99.90
13172;DHT22;6651;53.200;10.432;2022-07-10T08:54:14;18.10;99.90
13172;DHT22;6651;53.200;10.432;2022-07-10T08:56:41;18.30;99.90
13172;DHT22;6651;53.200;10.432;2022-07-10T08:59:07;18.80;99.90
13172;DHT22;6651;53.200;10.432;2022-07-10T09:01:33;19.30;99.90
13172;DHT22;6651;53.200;10.432;2022-07-10T09:03:59;19.60;99.90
13172;DHT22;6651;53.200;10.432;2022-07-10T09:06:27;19.40;99.90
13172;DHT22;6651;53.200;10.432;2022-07-10T09:09:07;19.00;99.90
13172;DHT22;6651;53.200;10.432;2022-07-10T09:11:34;18.80;99.90
13172;DHT22;6651;53.200;10.432;2022-07-10T09:14:04;19.30;99.90
13172;DHT22;6651;53.200;10.432;2022-07-10T09:16:34;19.80;99.90
13172;DHT22;6651;53.200;10.432;2022-07-10T09:19:23;20.20;99.90
13172;DHT22;6651;53.200;10.432;2022-07-10T09:21:51;20.20;99.90
13172;DHT22;6651;53.200;10.432;2022-07-10T09:24:16;20.60;99.90
13172;DHT22;6651;53.200;10.432;2022-07-10T09:29:22;21.30;99.90
13172;DHT22;6651;53.200;10.432;2022-07-10T09:31:56;21.00;99.90
13172;DHT22;6651;53.200;10.432;2022-07-10T09:34:41;20.40;99.90
13172;DHT22;6651;53.200;10.432;2022-07-10T09:37:29;20.10;99.90
13172;DHT22;6651;53.200;10.432;2022-07-10T09:39:59;20.10;99.90
13172;DHT22;6651;53.200;10.432;2022-07-10T09:42:34;20.40;99.90
13172;DHT22;6651;53.200;10.432;2022-07-10T09:45:13;20.80;99.90
13172;DHT22;6651;53.200;10.432;2022-07-10T09:47:57;21.10;99.90
13172;DHT22;6651;53.200;10.432;2022-07-10T09:50:30;21.50;99.90
13172;DHT22;6651;53.200;10.432;2022-07-10T09:53:00;21.70;99.90
13172;DHT22;6651;53.200;10.432;2022-07-10T09:55:34;21.50;99.90
13172;DHT22;6651;53.200;10.432;2022-07-10T09:58:05;21.20;99.90
13172;DHT22;6651;53.200;10.432;2022-07-10T10:00:51;20.90;99.90
13172;DHT22;6651;53.200;10.432;2022-07-10T10:03:20;21.00;99.90
13172;DHT22;6651;53.200;10.432;2022-07-10T10:06:01;21.20;99.90
13172;DHT22;6651;53.200;10.432;2022-07-10T10:08:31;21.30;99.90
13172;DHT22;6651;53.200;10.432;2022-07-10T10:10:58;21.60;99.90
13172;DHT22;6651;53.200;10.432;2022-07-10T10:13:26;21.80;99.90
13172;DHT22;6651;53.200;10.432;2022-07-10T10:15:53;22.10;99.90
13172;DHT22;6651;53.200;10.432;2022-07-10T10:18:24;22.10;99.90
13172;DHT22;6651;53.200;10.432;2022-07-10T10:20:53;21.70;99.90
13172;DHT22;6651;53.200;10.432;2022-07-10T10:23:20;21.40;99.90
13172;DHT22;6651;53.200;10.432;2022-07-10T10:25:49;21.20;99.90
13172;DHT22;6651;53.200;10.432;2022-07-10T10:28:19;21.10;99.90
13172;DHT22;6651;53.200;10.432;2022-07-10T10:30:54;20.90;99.90
13172;DHT22;6651;53.200;10.432;2022-07-10T10:36:00;21.40;99.90
13172;DHT22;6651;53.200;10.432;2022-07-10T10:41:26;21.30;99.90
13172;DHT22;6651;53.200;10.432;2022-07-10T10:49:17;22.30;99.90
13172;DHT22;6651;53.200;10.432;2022-07-10T10:52:10;22.00;99.90
13172;DHT22;6651;53.200;10.432;2022-07-10T11:00:06;22.70;99.80
13172;DHT22;6651;53.200;10.432;2022-07-10T11:02:34;22.30;99.70
13172;DHT22;6651;53.200;10.432;2022-07-10T11:13:00;21.70;99.00
13172;DHT22;6651;53.200;10.432;2022-07-10T11:15:28;21.70;99.10
13172;DHT22;6651;53.200;10.432;2022-07-10T11:18:18;21.60;99.80
13172;DHT22;6651;53.200;10.432;2022-07-10T11:20:46;21.30;99.90
13172;DHT22;6651;53.200;10.432;2022-07-10T11:26:55;21.50;99.90
13172;DHT22;6651;53.200;10.432;2022-07-10T11:29:24;21.90;99.90
13172;DHT22;6651;53.200;10.432;2022-07-10T11:31:54;22.00;99.90
13172;DHT22;6651;53.200;10.432;2022-07-10T11:34:21;22.00;99.90
13172;DHT22;6651;53.200;10.432;2022-07-10T11:36:48;21.90;99.90
13172;DHT22;6651;53.200;10.432;2022-07-10T11:39:24;21.30;99.90
13172;DHT22;6651;53.200;10.432;2022-07-10T11:41:50;21.60;99.90
13172;DHT22;6651;53.200;10.432;2022-07-10T11:44:17;22.00;99.90
13172;DHT22;6651;53.200;10.432;2022-07-10T11:50:22;21.60;99.90
13172;DHT22;6651;53.200;10.432;2022-07-10T11:52:50;21.00;99.90
13172;DHT22;6651;53.200;10.432;2022-07-10T11:55:21;21.10;99.90
13172;DHT22;6651;53.200;10.432;2022-07-10T11:57:47;21.50;99.90
13172;DHT22;6651;53.200;10.432;2022-07-10T12:00:44;21.80;99.90
13172;DHT22;6651;53.200;10.432;2022-07-10T12:04:03;22.30;99.90
13172;DHT22;6651;53.200;10.432;2022-07-10T12:06:24;22.40;99.80
13172;DHT22;6651;53.200;10.432;2022-07-10T12:09:07;22.50;99.90
13172;DHT22;6651;53.200;10.432;2022-07-10T12:11:37;22.10;99.90
13172;DHT22;6651;53.200;10.432;2022-07-10T12:16:47;22.40;99.90
13172;DHT22;6651;53.200;10.432;2022-07-10T12:19:38;22.70;99.90
13172;DHT22;6651;53.200;10.432;2022-07-10T12:22:07;22.50;99.90
13172;DHT22;6651;53.200;10.432;2022-07-10T12:24:33;22.10;99.60
13172;DHT22;6651;53.200;10.432;2022-07-10T12:27:05;21.80;99.90
13172;DHT22;6651;53.200;10.432;2022-07-10T12:29:32;21.60;99.90
13172;DHT22;6651;53.200;10.432;2022-07-10T12:31:59;22.00;99.90
13172;DHT22;6651;53.200;10.432;2022-07-10T12:34:40;22.40;99.90
13172;DHT22;6651;53.200;10.432;2022-07-10T12:37:12;22.70;98.70
13172;DHT22;6651;53.200;10.432;2022-07-10T12:39:46;22.50;99.30
13172;DHT22;6651;53.200;10.432;2022-07-10T12:42:28;22.00;99.90
13172;DHT22;6651;53.200;10.432;2022-07-10T12:44:54;22.00;99.90
13172;DHT22;6651;53.200;10.432;2022-07-10T12:47:20;22.20;99.60
13172;DHT22;6651;53.200;10.432;2022-07-10T12:49:50;22.40;99.70
13172;DHT22;6651;53.200;10.432;2022-07-10T12:52:36;22.80;99.90
13172;DHT22;6651;53.200;10.432;2022-07-10T12:57:58;22.50;99.70
13172;DHT22;6651;53.200;10.432;2022-07-10T13:00:29;22.60;99.20
13172;DHT22;6651;53.200;10.432;2022-07-10T13:03:01;22.50;98.30
13172;DHT22;6651;53.200;10.432;2022-07-10T13:05:35;22.00;99.00
13172;DHT22;6651;53.200;10.432;2022-07-10T13:08:17;22.00;99.40
13172;DHT22;6651;53.200;10.432;2022-07-10T13:10:51;22.30;99.80
13172;DHT22;6651;53.200;10.432;2022-07-10T13:13:17;21.90;99.80
13172;DHT22;6651;53.200;10.432;2022-07-10T13:15:44;21.90;99.10
13172;DHT22;6651;53.200;10.432;2022-07-10T13:18:23;22.10;99.40
13172;DHT22;6651;53.200;10.432;2022-07-10T13:20:51;22.10;99.50
13172;DHT22;6651;53.200;10.432;2022-07-10T13:23:18;22.30;99.30
13172;DHT22;6651;53.200;10.432;2022-07-10T13:25:54;22.30;99.90
13172;DHT22;6651;53.200;10.432;2022-07-10T13:28:20;22.50;99.80
13172;DHT22;6651;53.200;10.432;2022-07-10T13:30:46;22.20;99.40
13172;DHT22;6651;53.200;10.432;2022-07-10T13:33:12;22.00;99.70
13172;DHT22;6651;53.200;10.432;2022-07-10T13:35:38;21.80;99.60
13172;DHT22;6651;53.200;10.432;2022-07-10T13:38:04;22.10;99.90
13172;DHT22;6651;53.200;10.432;2022-07-10T13:40:32;22.30;98.40
13172;DHT22;6651;53.200;10.432;2022-07-10T13:42:58;22.40;98.80
13172;DHT22;6651;53.200;10.432;2022-07-10T13:45:25;22.50;98.60
13172;DHT22;6651;53.200;10.432;2022-07-10T13:47:55;22.30;97.70
13172;DHT22;6651;53.200;10.432;2022-07-10T13:50:21;22.10;97.30
13172;DHT22;6651;53.200;10.432;2022-07-10T13:52:48;22.10;97.30
13172;DHT22;6651;53.200;10.432;2022-07-10T13:55:13;21.80;97.60
13172;DHT22;6651;53.200;10.432;2022-07-10T13:57:40;21.90;98.30
13172;DHT22;6651;53.200;10.432;2022-07-10T14:00:06;22.10;98.70
13172;DHT22;6651;53.200;10.432;2022-07-10T14:02:32;22.40;98.50
13172;DHT22;6651;53.200;10.432;2022-07-10T14:04:57;22.60;97.30
13172;DHT22;6651;53.200;10.432;2022-07-10T14:07:23;22.30;97.40
13172;DHT22;6651;53.200;10.432;2022-07-10T14:09:49;22.10;97.40
13172;DHT22;6651;53.200;10.432;2022-07-10T14:12:14;22.00;98.20
13172;DHT22;6651;53.200;10.432;2022-07-10T14:14:40;21.80;98.30
13172;DHT22;6651;53.200;10.432;2022-07-10T14:17:06;21.70;98.70
13172;DHT22;6651;53.200;10.432;2022-07-10T14:19:32;21.70;98.80
13172;DHT22;6651;53.200;10.432;2022-07-10T14:21:57;21.60;99.00
13172;DHT22;6651;53.200;10.432;2022-07-10T14:24:24;21.30;99.60
13172;DHT22;6651;53.200;10.432;2022-07-10T14:26:50;21.50;99.90
13172;DHT22;6651;53.200;10.432;2022-07-10T14:29:17;21.70;99.90
13172;DHT22;6651;53.200;10.432;2022-07-10T14:31:43;21.90;99.70
13172;DHT22;6651;53.200;10.432;2022-07-10T14:34:10;22.10;99.30
13172;DHT22;6651;53.200;10.432;2022-07-10T14:36:36;22.30;99.90
13172;DHT22;6651;53.200;10.432;2022-07-10T14:39:02;22.30;98.30
13172;DHT22;6651;53.200;10.432;2022-07-10T14:41:28;22.10;99.80
13172;DHT22;6651;53.200;10.432;2022-07-10T14:43:53;21.90;99.90
13172;DHT22;6651;53.200;10.432;2022-07-10T14:46:19;21.70;99.40
13172;DHT22;6651;53.200;10.432;2022-07-10T14:48:44;21.50;99.50
13172;DHT22;6651;53.200;10.432;2022-07-10T14:51:10;21.40;98.50
13172;DHT22;6651;53.200;10.432;2022-07-10T14:53:36;21.10;99.30
13172;DHT22;6651;53.200;10.432;2022-07-10T14:56:03;20.90;99.90
13172;DHT22;6651;53.200;10.432;2022-07-10T14:58:29;20.80;99.90
13172;DHT22;6651;53.200;10.432;2022-07-10T15:00:54;20.90;99.90
13172;DHT22;6651;53.200;10.432;2022-07-10T15:03:20;21.10;99.90
13172;DHT22;6651;53.200;10.432;2022-07-10T15:05:46;21.10;99.90
13172;DHT22;6651;53.200;10.432;2022-07-10T15:08:12;21.00;99.80
13172;DHT22;6651;53.200;10.432;2022-07-10T15:10:37;20.80;99.70
13172;DHT22;6651;53.200;10.432;2022-07-10T15:13:03;20.70;99.90
13172;DHT22;6651;53.200;10.432;2022-07-10T15:15:33;20.70;99.90
13172;DHT22;6651;53.200;10.432;2022-07-10T15:17:59;20.80;99.90
13172;DHT22;6651;53.200;10.432;2022-07-10T15:20:24;20.90;99.90
13172;DHT22;6651;53.200;10.432;2022-07-10T15:22:50;20.90;99.90
13172;DHT22;6651;53.200;10.432;2022-07-10T15:25:15;20.90;99.90
13172;DHT22;6651;53.200;10.432;2022-07-10T15:27:41;21.10;99.90
13172;DHT22;6651;53.200;10.432;2022-07-10T15:30:08;21.10;99.90
13172;DHT22;6651;53.200;10.432;2022-07-10T15:32:36;21.00;99.90
13172;DHT22;6651;53.200;10.432;2022-07-10T15:35:02;21.00;99.90
13172;DHT22;6651;53.200;10.432;2022-07-10T15:37:28;20.70;99.90
13172;DHT22;6651;53.200;10.432;2022-07-10T15:39:54;20.30;99.90
13172;DHT22;6651;53.200;10.432;2022-07-10T15:42:20;20.00;99.90
13172;DHT22;6651;53.200;10.432;2022-07-10T15:44:46;20.00;99.90
13172;DHT22;6651;53.200;10.432;2022-07-10T15:47:11;19.90;99.90
13172;DHT22;6651;53.200;10.432;2022-07-10T15:49:37;19.60;99.90
13172;DHT22;6651;53.200;10.432;2022-07-10T15:52:03;19.70;99.90
13172;DHT22;6651;53.200;10.432;2022-07-10T15:54:29;19.60;99.90
13172;DHT22;6651;53.200;10.432;2022-07-10T15:56:55;19.50;99.90
13172;DHT22;6651;53.200;10.432;2022-07-10T15:59:21;19.50;99.90
13172;DHT22;6651;53.200;10.432;2022-07-10T16:01:55;19.50;99.90
13172;DHT22;6651;53.200;10.432;2022-07-10T16:04:21;19.60;99.90
13172;DHT22;6651;53.200;10.432;2022-07-10T16:06:47;19.80;99.90
13172;DHT22;6651;53.200;10.432;2022-07-10T16:09:13;19.90;99.90
13172;DHT22;6651;53.200;10.432;2022-07-10T16:11:39;20.00;99.90
13172;DHT22;6651;53.200;10.432;2022-07-10T16:14:07;20.10;99.90
13172;DHT22;6651;53.200;10.432;2022-07-10T16:16:33;20.10;99.90
13172;DHT22;6651;53.200;10.432;2022-07-10T16:18:58;20.10;99.90